createdAt,value
2018-04-18T00:00:38.018Z,13.15
2018-04-18T00:01:38.019Z,13.06
2018-04-18T00:02:38.020Z,12.99
2018-04-18T00:03:38.005Z,12.92
2018-04-18T00:04:37.983Z,12.93
2018-04-18T00:05:37.989Z,13.00
2018-04-18T00:06:37.998Z,13.03
2018-04-18T00:07:37.992Z,13.00
2018-04-18T00:08:37.985Z,13.02
2018-04-18T00:09:37.977Z,13.00
2018-04-18T00:10:37.982Z,12.85
2018-04-18T00:11:37.987Z,12.85
2018-04-18T00:12:37.971Z,12.82
2018-04-18T00:13:37.968Z,12.88
2018-04-18T00:14:37.959Z,12.96
2018-04-18T00:15:37.947Z,12.88
2018-04-18T00:16:37.955Z,12.82
2018-04-18T00:17:37.954Z,12.79
2018-04-18T00:18:37.935Z,12.88
2018-04-18T00:19:37.950Z,12.95
2018-04-18T00:20:37.924Z,12.96
2018-04-18T00:21:37.913Z,13.02
2018-04-18T00:22:37.919Z,12.93
2018-04-18T00:23:37.930Z,12.87
2018-04-18T00:24:37.909Z,12.99
2018-04-18T00:25:37.912Z,13.06
2018-04-18T00:26:37.902Z,13.14
2018-04-18T00:27:37.901Z,12.97
2018-04-18T00:28:37.890Z,12.95
2018-04-18T00:29:37.904Z,12.93
2018-04-18T00:30:37.887Z,12.88
2018-04-18T00:31:37.875Z,12.75
2018-04-18T00:32:37.889Z,12.69
2018-04-18T00:33:37.880Z,12.64
2018-04-18T00:34:37.878Z,12.82
2018-04-18T00:35:37.878Z,12.82
2018-04-18T00:36:37.857Z,12.77
2018-04-18T00:37:37.858Z,12.78
2018-04-18T00:38:37.846Z,12.79
2018-04-18T00:39:37.848Z,12.82
2018-04-18T00:40:37.847Z,12.79
2018-04-18T00:41:37.868Z,12.87
2018-04-18T00:42:37.834Z,12.87
2018-04-18T00:43:37.872Z,12.77
2018-04-18T00:44:37.828Z,12.62
2018-04-18T00:45:37.838Z,12.69
2018-04-18T00:46:37.827Z,12.51
2018-04-18T00:47:37.818Z,12.56
2018-04-18T00:48:37.805Z,12.57
2018-04-18T00:49:37.811Z,12.60
2018-04-18T00:50:37.821Z,12.69
2018-04-18T00:51:37.797Z,12.69
2018-04-18T00:52:37.783Z,12.70
2018-04-18T00:53:37.790Z,12.75
2018-04-18T00:54:37.794Z,12.82
2018-04-18T00:55:37.811Z,12.87
2018-04-18T00:56:37.775Z,12.81
2018-04-18T00:57:37.780Z,12.88
2018-04-18T00:58:37.773Z,12.85
2018-04-18T00:59:37.766Z,12.93
2018-04-18T01:00:37.771Z,12.82
2018-04-18T01:01:37.775Z,12.77
2018-04-18T01:02:37.746Z,12.64
2018-04-18T01:03:37.756Z,12.71
2018-04-18T01:04:37.749Z,12.69
2018-04-18T01:05:37.738Z,12.63
2018-04-18T01:06:37.738Z,12.56
2018-04-18T01:07:37.729Z,12.63
2018-04-18T01:08:37.727Z,12.69
2018-04-18T01:09:37.742Z,12.70
2018-04-18T01:10:37.725Z,12.79
2018-04-18T01:11:37.713Z,12.78
2018-04-18T01:12:37.726Z,12.69
2018-04-18T01:13:37.705Z,12.67
2018-04-18T01:14:37.699Z,12.77
2018-04-18T01:15:37.689Z,12.75
2018-04-18T01:16:37.689Z,12.74
2018-04-18T01:17:37.688Z,12.74
2018-04-18T01:18:37.683Z,12.70
2018-04-18T01:19:37.678Z,12.69
2018-04-18T01:20:37.684Z,12.69
2018-04-18T01:21:37.668Z,12.66
2018-04-18T01:22:37.667Z,12.74
2018-04-18T01:23:37.659Z,12.63
2018-04-18T01:24:37.658Z,12.59
2018-04-18T01:25:37.649Z,12.64
2018-04-18T01:26:37.641Z,12.67
2018-04-18T01:27:37.650Z,12.66
2018-04-18T01:28:37.640Z,12.71
2018-04-18T01:29:37.629Z,12.54
2018-04-18T02:02:37.552Z,12.52
2018-04-18T02:03:37.513Z,12.56
2018-04-18T02:05:30.387Z,12.56
2018-04-18T02:06:30.362Z,12.63
2018-04-18T02:08:23.275Z,12.51
2018-04-18T02:09:23.224Z,12.59
2018-04-18T02:11:16.196Z,12.63
2018-04-18T02:12:16.162Z,12.63
2018-04-18T02:14:09.058Z,12.67
2018-04-18T02:15:09.036Z,12.67
2018-04-18T02:17:01.959Z,12.70
2018-04-18T02:18:01.919Z,12.52
2018-04-18T02:19:54.865Z,12.41
2018-04-18T02:20:54.846Z,12.56
2018-04-18T02:22:47.759Z,12.54
2018-04-18T02:23:47.724Z,12.54
2018-04-18T02:25:40.662Z,12.51
2018-04-18T02:26:40.640Z,12.38
2018-04-18T02:29:24.630Z,12.51
2018-04-18T02:30:24.606Z,12.52
2018-04-18T02:32:17.570Z,12.45
2018-04-18T02:33:17.552Z,12.33
2018-04-18T02:35:10.526Z,12.26
2018-04-18T02:36:10.507Z,12.12
2018-04-18T02:38:03.432Z,12.16
2018-04-18T02:39:03.391Z,12.15
2018-04-18T02:40:56.340Z,12.13
2018-04-18T02:41:56.276Z,12.05
2018-04-18T02:43:49.177Z,12.12
2018-04-18T02:44:49.160Z,11.93
2018-04-18T02:46:42.137Z,11.96
2018-04-18T02:47:42.117Z,12.01
2018-04-18T02:49:35.043Z,12.11
2018-04-18T02:50:34.996Z,12.11
2018-04-18T02:52:27.896Z,12.13
2018-04-18T02:53:27.880Z,12.13
2018-04-18T02:55:20.799Z,11.87
2018-04-18T02:56:20.773Z,12.05
2018-04-18T02:58:13.891Z,11.97
2018-04-18T02:59:13.709Z,11.93
2018-04-18T03:01:06.643Z,12.04
2018-04-18T03:02:06.607Z,11.96
2018-04-18T03:03:59.591Z,12.01
2018-04-18T03:04:59.538Z,12.09
2018-04-18T03:06:52.504Z,12.02
2018-04-18T03:07:52.475Z,11.93
2018-04-18T03:09:45.394Z,11.90
2018-04-18T03:10:45.402Z,12.01
2018-04-18T03:11:45.366Z,11.94
2018-04-18T03:12:45.375Z,11.99
2018-04-18T03:13:45.356Z,11.93
2018-04-18T03:14:45.351Z,11.93
2018-04-18T03:15:45.345Z,11.94
2018-04-18T03:16:45.340Z,11.93
2018-04-18T03:17:45.348Z,11.80
2018-04-18T03:18:45.328Z,11.74
2018-04-18T03:19:45.325Z,11.59
2018-04-18T03:20:45.317Z,11.61
2018-04-18T03:21:45.312Z,11.53
2018-04-18T03:22:45.318Z,11.56
2018-04-18T03:23:45.311Z,11.47
2018-04-18T03:24:45.305Z,11.39
2018-04-18T03:25:45.304Z,11.43
2018-04-18T03:26:45.299Z,11.38
2018-04-18T03:27:45.298Z,11.39
2018-04-18T03:28:45.295Z,11.46
2018-04-18T03:29:45.319Z,11.47
2018-04-18T03:30:45.286Z,11.38
2018-04-18T03:31:45.304Z,11.32
2018-04-18T03:32:45.267Z,11.29
2018-04-18T03:33:45.266Z,11.19
2018-04-18T03:34:45.271Z,11.10
2018-04-18T03:35:45.272Z,11.29
2018-04-18T03:36:45.253Z,11.25
2018-04-18T03:37:45.270Z,11.13
2018-04-18T03:38:45.250Z,11.17
2018-04-18T03:39:45.275Z,11.09
2018-04-18T03:40:45.252Z,11.16
2018-04-18T03:41:45.223Z,11.14
2018-04-18T03:42:45.225Z,11.06
2018-04-18T03:43:45.218Z,11.10
2018-04-18T03:44:45.218Z,10.96
2018-04-18T03:45:45.206Z,11.06
2018-04-18T03:46:45.200Z,10.99
2018-04-18T03:47:45.192Z,11.02
2018-04-18T03:48:45.187Z,10.98
2018-04-18T03:49:45.186Z,10.95
2018-04-18T03:50:45.177Z,10.96
2018-04-18T03:51:45.173Z,11.01
2018-04-18T03:52:45.168Z,10.98
2018-04-18T03:53:45.169Z,10.83
2018-04-18T03:54:45.167Z,10.89
2018-04-18T03:55:45.322Z,10.89
2018-04-18T03:56:45.152Z,10.94
2018-04-18T03:57:45.146Z,10.92
2018-04-18T03:58:45.163Z,10.88
2018-04-18T03:59:45.135Z,10.77
2018-04-18T04:00:45.133Z,10.86
2018-04-18T04:01:45.132Z,10.77
2018-04-18T04:02:45.191Z,10.83
2018-04-18T04:03:45.120Z,10.84
2018-04-18T04:04:45.207Z,10.83
2018-04-18T04:05:45.216Z,11.07
2018-04-18T04:06:45.117Z,11.06
2018-04-18T04:07:45.102Z,11.09
2018-04-18T04:08:45.091Z,10.96
2018-04-18T04:09:45.084Z,11.03
2018-04-18T04:10:45.076Z,11.14
2018-04-18T04:11:45.087Z,11.16
2018-04-18T04:12:45.068Z,11.09
2018-04-18T04:13:45.063Z,11.17
2018-04-18T04:14:45.060Z,11.11
2018-04-18T04:15:45.085Z,11.21
2018-04-18T04:16:45.072Z,11.14
2018-04-18T04:17:45.047Z,11.16
2018-04-18T04:18:45.039Z,11.19
2018-04-18T04:19:45.047Z,11.20
2018-04-18T04:20:45.035Z,11.20
2018-04-18T04:21:45.019Z,11.19
2018-04-18T04:22:45.016Z,11.10
2018-04-18T04:23:45.011Z,11.14
2018-04-18T04:24:45.112Z,11.10
2018-04-18T04:25:45.129Z,11.31
2018-04-18T04:26:45.002Z,11.29
2018-04-18T04:27:45.003Z,11.28
2018-04-18T04:28:44.983Z,11.27
2018-04-18T04:29:44.997Z,11.35
2018-04-18T04:30:44.969Z,11.44
2018-04-18T04:31:44.965Z,11.46
2018-04-18T04:32:44.961Z,11.35
2018-04-18T04:33:44.970Z,11.49
2018-04-18T04:34:44.962Z,11.47
2018-04-18T04:35:44.947Z,11.59
2018-04-18T04:36:44.953Z,11.64
2018-04-18T04:37:44.942Z,11.47
2018-04-18T04:38:44.940Z,11.47
2018-04-18T04:39:44.931Z,11.64
2018-04-18T04:40:44.932Z,11.62
2018-04-18T04:41:44.919Z,11.61
2018-04-18T04:42:44.913Z,11.56
2018-04-18T04:43:44.911Z,11.62
2018-04-18T04:44:44.951Z,11.57
2018-04-18T04:45:44.902Z,11.57
2018-04-18T04:46:44.898Z,11.57
2018-04-18T04:47:44.893Z,11.61
2018-04-18T04:48:44.896Z,11.64
2018-04-18T04:49:44.888Z,11.59
2018-04-18T04:50:44.878Z,11.64
2018-04-18T04:51:44.874Z,11.78
2018-04-18T04:52:44.874Z,11.82
2018-04-18T04:53:44.865Z,11.78
2018-04-18T04:54:44.856Z,11.78
2018-04-18T04:55:44.862Z,11.94
2018-04-18T04:56:44.860Z,11.77
2018-04-18T04:57:44.854Z,11.85
2018-04-18T04:58:44.847Z,11.83
2018-04-18T04:59:44.844Z,11.82
2018-04-18T05:00:44.831Z,11.90
2018-04-18T05:01:44.837Z,11.83
2018-04-18T05:02:44.835Z,11.97
2018-04-18T05:03:44.818Z,11.93
2018-04-18T05:04:44.811Z,11.97
2018-04-18T05:05:44.804Z,11.96
2018-04-18T05:06:44.809Z,12.08
2018-04-18T05:07:44.803Z,12.06
2018-04-18T05:08:44.797Z,11.93
2018-04-18T05:09:44.794Z,12.08
2018-04-18T05:10:44.796Z,12.29
2018-04-18T05:11:44.777Z,12.37
2018-04-18T05:12:44.789Z,12.39
2018-04-18T05:13:44.774Z,12.24
2018-04-18T05:14:44.774Z,12.15
2018-04-18T05:15:44.770Z,12.15
2018-04-18T05:16:44.764Z,12.12
2018-04-18T05:17:44.771Z,12.20
2018-04-18T05:18:44.769Z,12.26
2018-04-18T05:19:44.769Z,12.30
2018-04-18T05:20:44.737Z,12.31
2018-04-18T05:21:44.745Z,12.30
2018-04-18T05:22:44.746Z,12.31
2018-04-18T05:23:44.742Z,12.37
2018-04-18T05:24:44.732Z,12.30
2018-04-18T05:25:44.728Z,12.30
2018-04-18T05:26:44.725Z,12.30
2018-04-18T05:27:44.718Z,12.30
2018-04-18T05:28:44.707Z,12.30
2018-04-18T05:29:44.707Z,12.27
2018-04-18T05:30:44.714Z,12.39
2018-04-18T05:31:44.700Z,12.33
2018-04-18T05:32:44.709Z,12.27
2018-04-18T05:33:44.704Z,12.26
2018-04-18T05:34:44.710Z,12.41
2018-04-18T05:35:44.684Z,12.29
2018-04-18T05:36:44.694Z,12.33
2018-04-18T05:37:44.678Z,12.33
2018-04-18T05:38:44.676Z,12.39
2018-04-18T05:39:44.668Z,12.42
2018-04-18T05:40:44.671Z,12.41
2018-04-18T05:41:44.670Z,12.44
2018-04-18T05:42:44.674Z,12.38
2018-04-18T05:43:44.663Z,12.45
2018-04-18T05:44:44.660Z,12.45
2018-04-18T05:45:44.666Z,12.42
2018-04-18T05:46:44.654Z,12.42
2018-04-18T05:47:44.639Z,12.38
2018-04-18T05:48:44.638Z,12.52
2018-04-18T05:49:44.641Z,12.62
2018-04-18T05:50:44.625Z,12.52
2018-04-18T05:51:44.635Z,12.54
2018-04-18T05:52:44.623Z,12.62
2018-04-18T05:53:44.640Z,12.62
2018-04-18T05:54:44.629Z,12.70
2018-04-18T05:55:44.615Z,12.71
2018-04-18T05:56:44.610Z,12.66
2018-04-18T05:57:44.629Z,12.74
2018-04-18T05:58:44.615Z,12.75
2018-04-18T05:59:44.605Z,12.69
2018-04-18T06:00:44.607Z,12.79
2018-04-18T06:01:44.592Z,12.70
2018-04-18T06:02:44.598Z,12.74
2018-04-18T06:03:44.587Z,12.82
2018-04-18T06:04:44.640Z,12.74
2018-04-18T06:05:44.589Z,12.79
2018-04-18T06:06:44.574Z,12.95
2018-04-18T06:07:44.577Z,12.95
2018-04-18T06:08:44.577Z,12.99
2018-04-18T06:09:44.561Z,13.02
2018-04-18T06:10:44.565Z,12.93
2018-04-18T06:11:44.564Z,13.07
2018-04-18T06:12:44.560Z,13.20
2018-04-18T06:13:44.562Z,13.00
2018-04-18T06:14:44.558Z,13.11
2018-04-18T06:15:44.554Z,13.15
2018-04-18T06:16:44.546Z,13.14
2018-04-18T06:17:44.560Z,13.25
2018-04-18T06:18:44.549Z,13.29
2018-04-18T06:19:44.546Z,13.25
2018-04-18T06:20:44.538Z,13.40
2018-04-18T06:21:44.539Z,13.44
2018-04-18T06:22:44.533Z,13.27
2018-04-18T06:23:44.538Z,13.38
2018-04-18T06:24:44.525Z,13.44
2018-04-18T06:25:44.528Z,13.61
2018-04-18T06:26:44.524Z,13.69
2018-04-18T06:27:44.518Z,13.74
2018-04-18T06:28:44.516Z,13.80
2018-04-18T06:29:44.507Z,13.80
2018-04-18T06:30:44.510Z,13.81
2018-04-18T06:31:44.499Z,13.84
2018-04-18T06:32:44.509Z,13.95
2018-04-18T06:33:44.499Z,14.04
2018-04-18T06:34:44.501Z,13.92
2018-04-18T06:35:44.494Z,13.92
2018-04-18T06:36:44.495Z,14.09
2018-04-18T06:37:44.491Z,14.42
2018-04-18T06:38:44.484Z,14.53
2018-04-18T06:39:44.489Z,14.62
2018-04-18T06:40:44.479Z,14.67
2018-04-18T06:41:44.478Z,14.50
2018-04-18T06:42:44.476Z,14.54
2018-04-18T06:43:44.482Z,14.72
2018-04-18T06:44:44.474Z,14.83
2018-04-18T06:45:44.470Z,14.93
2018-04-18T06:46:44.468Z,14.87
2018-04-18T06:47:44.462Z,14.83
2018-04-18T06:48:44.464Z,14.95
2018-04-18T06:49:44.469Z,15.13
2018-04-18T06:50:44.471Z,15.11
2018-04-18T06:51:44.457Z,15.19
2018-04-18T06:52:44.455Z,15.20
2018-04-18T06:53:44.453Z,15.36
2018-04-18T06:54:44.441Z,15.30
2018-04-18T06:55:44.449Z,15.43
2018-04-18T06:56:44.446Z,15.39
2018-04-18T06:57:44.447Z,15.59
2018-04-18T06:58:44.450Z,15.78
2018-04-18T06:59:44.447Z,15.75
2018-04-18T07:00:44.450Z,15.81
2018-04-18T07:01:44.441Z,15.75
2018-04-18T07:02:44.453Z,15.67
2018-04-18T07:03:44.438Z,15.86
2018-04-18T07:04:44.437Z,15.99
2018-04-18T07:05:44.428Z,16.22
2018-04-18T07:06:44.426Z,16.30
2018-04-18T07:07:44.425Z,16.33
2018-04-18T07:08:44.429Z,16.26
2018-04-18T07:09:44.428Z,16.42
2018-04-18T07:10:44.425Z,16.71
2018-04-18T07:11:44.420Z,17.08
2018-04-18T07:12:44.417Z,17.08
2018-04-18T07:13:44.427Z,17.10
2018-04-18T07:14:44.424Z,16.83
2018-04-18T07:15:44.420Z,16.58
2018-04-18T07:16:44.422Z,17.06
2018-04-18T07:17:44.415Z,17.50
2018-04-18T07:18:44.413Z,17.47
2018-04-18T07:19:44.421Z,17.48
2018-04-18T07:20:44.405Z,17.89
2018-04-18T07:21:44.412Z,18.28
2018-04-18T07:22:44.411Z,18.50
2018-04-18T07:23:44.406Z,18.74
2018-04-18T07:24:44.407Z,19.33
2018-04-18T07:25:44.401Z,19.14
2018-04-18T07:26:44.410Z,19.33
2018-04-18T07:27:44.406Z,19.83
2018-04-18T07:28:44.412Z,19.29
2018-04-18T07:29:44.428Z,18.97
2018-04-18T07:30:44.417Z,19.29
2018-04-18T07:31:44.413Z,19.40
2018-04-18T07:32:44.420Z,18.95
2018-04-18T07:33:44.420Z,19.11
2018-04-18T07:34:44.428Z,19.47
2018-04-18T07:35:44.426Z,19.87
2018-04-18T07:36:44.437Z,20.08
2018-04-18T07:37:44.434Z,19.72
2018-04-18T07:38:44.443Z,19.47
2018-04-18T07:39:44.451Z,20.02
2018-04-18T07:40:44.466Z,20.03
2018-04-18T07:41:44.473Z,20.20
2018-04-18T07:42:44.477Z,20.34
2018-04-18T07:43:44.490Z,21.05
2018-04-18T07:44:44.504Z,20.68
2018-04-18T07:45:44.513Z,20.18
2018-04-18T07:46:44.517Z,20.20
2018-04-18T07:47:44.521Z,20.28
2018-04-18T07:48:44.538Z,20.65
2018-04-18T07:49:44.547Z,21.05
2018-04-18T07:50:44.553Z,20.24
2018-04-18T07:51:44.566Z,20.13
2018-04-18T07:52:44.593Z,20.56
2018-04-18T07:53:44.589Z,20.80
2018-04-18T07:54:44.613Z,21.23
2018-04-18T07:55:44.614Z,20.72
2018-04-18T07:56:44.615Z,20.47
2018-04-18T07:57:44.626Z,20.06
2018-04-18T07:58:44.638Z,20.34
2018-04-18T07:59:44.656Z,20.84
2018-04-18T08:00:44.655Z,21.17
2018-04-18T08:01:44.667Z,21.90
2018-04-18T08:02:44.689Z,21.81
2018-04-18T08:03:44.698Z,21.85
2018-04-18T08:04:44.717Z,21.16
2018-04-18T08:05:44.726Z,21.34
2018-04-18T08:06:44.732Z,21.42
2018-04-18T08:07:44.740Z,22.10
2018-04-18T08:08:44.758Z,22.14
2018-04-18T08:09:44.774Z,21.88
2018-04-18T08:10:44.778Z,21.91
2018-04-18T08:11:44.787Z,22.35
2018-04-18T08:12:44.808Z,21.48
2018-04-18T08:13:44.823Z,22.14
2018-04-18T08:14:44.837Z,22.74
2018-04-18T08:15:44.866Z,21.81
2018-04-18T08:16:44.860Z,21.60
2018-04-18T08:17:44.873Z,21.95
2018-04-18T08:18:44.889Z,22.34
2018-04-18T08:19:44.897Z,22.67
2018-04-18T08:20:44.933Z,22.57
2018-04-18T08:21:44.928Z,22.23
2018-04-18T08:22:44.936Z,22.17
2018-04-18T08:23:44.951Z,21.45
2018-04-18T08:24:44.970Z,21.61
2018-04-18T08:25:44.985Z,21.97
2018-04-18T08:26:45.001Z,21.59
2018-04-18T08:27:45.012Z,21.06
2018-04-18T08:28:45.022Z,21.45
2018-04-18T08:29:45.039Z,21.39
2018-04-18T08:30:45.062Z,21.21
2018-04-18T08:31:45.072Z,21.81
2018-04-18T08:32:45.084Z,22.04
2018-04-18T08:33:45.102Z,22.29
2018-04-18T08:34:45.097Z,22.59
2018-04-18T08:35:45.114Z,22.54
2018-04-18T08:36:45.134Z,22.39
2018-04-18T08:37:45.151Z,22.37
2018-04-18T08:38:45.160Z,23.02
2018-04-18T08:39:45.182Z,22.96
2018-04-18T08:40:45.209Z,22.77
2018-04-18T08:41:45.212Z,22.97
2018-04-18T08:42:45.219Z,23.26
2018-04-18T08:43:45.231Z,22.49
2018-04-18T08:44:45.246Z,22.53
2018-04-18T08:45:45.274Z,22.71
2018-04-18T08:46:45.268Z,22.75
2018-04-18T08:47:45.283Z,22.32
2018-04-18T08:48:45.303Z,22.59
2018-04-18T08:49:45.315Z,22.52
2018-04-18T08:50:45.333Z,22.94
2018-04-18T08:51:45.344Z,23.19
2018-04-18T08:52:45.367Z,23.12
2018-04-18T08:53:45.383Z,23.01
2018-04-18T08:54:45.397Z,22.27
2018-04-18T08:55:45.413Z,22.87
2018-04-18T08:56:45.425Z,22.99
2018-04-18T08:57:45.437Z,23.34
2018-04-18T08:58:45.450Z,22.54
2018-04-18T08:59:45.479Z,22.65
2018-04-18T09:00:45.487Z,22.97
2018-04-18T09:01:45.501Z,23.43
2018-04-18T09:02:45.515Z,23.26
2018-04-18T09:03:45.526Z,22.87
2018-04-18T09:04:45.545Z,23.57
2018-04-18T09:05:45.564Z,23.14
2018-04-18T09:06:45.567Z,22.89
2018-04-18T09:07:45.597Z,22.67
2018-04-18T09:08:45.599Z,23.04
2018-04-18T09:09:45.648Z,22.97
2018-04-18T09:10:45.631Z,23.79
2018-04-18T09:11:45.646Z,24.08
2018-04-18T09:12:45.668Z,23.87
2018-04-18T09:13:45.685Z,23.75
2018-04-18T09:14:45.689Z,24.08
2018-04-18T09:15:45.713Z,24.07
2018-04-18T09:16:45.732Z,23.34
2018-04-18T09:17:45.757Z,23.85
2018-04-18T09:18:45.769Z,23.95
2018-04-18T09:19:45.787Z,24.08
2018-04-18T09:20:45.814Z,24.88
2018-04-18T09:21:45.817Z,24.56
2018-04-18T09:22:45.840Z,25.20
2018-04-18T09:23:45.857Z,24.52
2018-04-18T09:24:45.864Z,24.17
2018-04-18T09:25:45.886Z,24.64
2018-04-18T09:26:45.896Z,24.88
2018-04-18T09:27:45.921Z,24.22
2018-04-18T09:28:45.935Z,24.45
2018-04-18T09:29:46.004Z,23.98
2018-04-18T09:30:45.983Z,24.29
2018-04-18T09:31:45.979Z,24.29
2018-04-18T09:32:46.002Z,23.70
2018-04-18T09:33:46.014Z,23.76
2018-04-18T09:34:46.036Z,24.00
2018-04-18T09:35:46.088Z,24.02
2018-04-18T09:36:46.065Z,24.39
2018-04-18T09:37:46.083Z,23.43
2018-04-18T09:38:46.103Z,23.80
2018-04-18T09:39:46.145Z,23.80
2018-04-18T09:40:46.136Z,23.90
2018-04-18T09:41:46.145Z,24.29
2018-04-18T09:42:46.177Z,25.09
2018-04-18T09:43:46.179Z,25.25
2018-04-18T09:44:46.198Z,24.98
2018-04-18T09:45:46.217Z,24.26
2018-04-18T09:46:46.232Z,23.38
2018-04-18T09:47:46.251Z,23.76
2018-04-18T09:48:46.268Z,24.87
2018-04-18T09:49:46.284Z,24.04
2018-04-18T09:50:46.304Z,24.10
2018-04-18T09:51:46.309Z,23.79
2018-04-18T09:52:46.333Z,23.39
2018-04-18T09:53:46.354Z,23.90
2018-04-18T09:54:46.367Z,23.80
2018-04-18T09:55:46.379Z,24.04
2018-04-18T09:56:46.396Z,23.57
2018-04-18T09:57:46.409Z,23.35
2018-04-18T09:58:46.429Z,24.02
2018-04-18T09:59:46.442Z,23.45
2018-04-18T10:00:46.462Z,23.55
2018-04-18T10:01:46.480Z,24.05
2018-04-18T10:02:46.485Z,24.37
2018-04-18T10:03:46.512Z,24.90
2018-04-18T10:04:46.521Z,24.82
2018-04-18T10:05:46.545Z,25.07
2018-04-18T10:06:46.550Z,24.90
2018-04-18T10:07:46.575Z,23.92
2018-04-18T10:08:46.592Z,24.35
2018-04-18T10:09:46.606Z,24.63
2018-04-18T10:10:46.631Z,24.42
2018-04-18T10:11:46.641Z,24.69
2018-04-18T10:12:46.648Z,24.61
2018-04-18T10:13:46.672Z,23.52
2018-04-18T10:14:46.686Z,23.76
2018-04-18T10:15:46.702Z,24.23
2018-04-18T10:16:46.717Z,23.82
2018-04-18T10:17:46.744Z,24.39
2018-04-18T10:18:46.754Z,24.10
2018-04-18T10:19:46.774Z,23.80
2018-04-18T10:20:46.788Z,24.44
2018-04-18T10:21:46.794Z,24.98
2018-04-18T10:22:46.825Z,24.85
2018-04-18T10:23:46.838Z,24.90
2018-04-18T10:24:46.854Z,25.24
2018-04-18T10:25:46.854Z,24.14
2018-04-18T10:26:46.881Z,23.94
2018-04-18T10:27:46.908Z,24.02
2018-04-18T10:28:46.924Z,24.29
2018-04-18T10:29:46.943Z,23.75
2018-04-18T10:30:46.943Z,23.90
2018-04-18T10:31:46.975Z,24.22
2018-04-18T10:32:46.983Z,24.23
2018-04-18T10:33:46.995Z,24.08
2018-04-18T10:34:47.016Z,23.67
2018-04-18T10:35:47.019Z,23.90
2018-04-18T10:36:47.049Z,24.12
2018-04-18T10:37:47.073Z,24.75
2018-04-18T10:38:47.082Z,24.41
2018-04-18T10:39:47.101Z,24.85
2018-04-18T10:40:47.107Z,25.09
2018-04-18T10:41:47.140Z,24.39
2018-04-18T10:42:47.132Z,24.59
2018-04-18T10:43:47.157Z,24.68
2018-04-18T10:44:47.191Z,24.76
2018-04-18T10:45:47.195Z,23.72
2018-04-18T10:46:47.206Z,24.29
2018-04-18T10:47:47.239Z,24.31
2018-04-18T10:48:47.248Z,24.60
2018-04-18T10:49:47.256Z,24.47
2018-04-18T10:50:47.284Z,24.41
2018-04-18T10:51:47.282Z,24.67
2018-04-18T10:52:47.306Z,25.13
2018-04-18T10:53:47.325Z,24.71
2018-04-18T10:54:47.333Z,23.98
2018-04-18T10:55:47.350Z,24.44
2018-04-18T10:56:47.375Z,24.59
2018-04-18T10:57:47.388Z,25.00
2018-04-18T10:58:47.397Z,25.19
2018-04-18T10:59:47.414Z,25.07
2018-04-18T11:00:47.438Z,24.07
2018-04-18T11:01:47.452Z,24.42
2018-04-18T11:02:47.467Z,24.19
2018-04-18T11:03:47.484Z,24.31
2018-04-18T11:04:47.517Z,24.02
2018-04-18T11:05:47.516Z,24.31
2018-04-18T11:06:47.522Z,24.67
2018-04-18T11:07:47.551Z,25.44
2018-04-18T11:08:47.565Z,25.01
2018-04-18T11:09:47.581Z,25.13
2018-04-18T11:10:47.595Z,24.63
2018-04-18T11:11:47.608Z,25.12
2018-04-18T11:12:47.627Z,24.83
2018-04-18T11:13:47.642Z,24.71
2018-04-18T11:14:47.649Z,24.10
2018-04-18T11:15:47.664Z,24.60
2018-04-18T11:16:47.691Z,25.01
2018-04-18T11:17:47.708Z,24.49
2018-04-18T11:18:47.717Z,24.80
2018-04-18T11:19:47.733Z,24.63
2018-04-18T11:20:47.751Z,24.42
2018-04-18T11:21:47.756Z,23.86
2018-04-18T11:22:47.789Z,24.07
2018-04-18T11:23:47.793Z,24.24
2018-04-18T11:24:47.817Z,24.87
2018-04-18T11:25:47.833Z,24.59
2018-04-18T11:26:47.840Z,24.31
2018-04-18T11:27:47.874Z,24.49
2018-04-18T11:28:47.911Z,24.44
2018-04-18T11:29:47.885Z,24.26
2018-04-18T11:30:47.903Z,24.61
2018-04-18T11:31:47.922Z,24.16
2018-04-18T11:32:47.937Z,24.95
2018-04-18T11:33:47.957Z,24.67
2018-04-18T11:34:47.964Z,24.34
2018-04-18T11:35:47.988Z,24.34
2018-04-18T11:36:48.005Z,24.92
2018-04-18T11:37:48.020Z,25.25
2018-04-18T11:38:48.027Z,25.32
2018-04-18T11:39:48.083Z,25.19
2018-04-18T11:40:48.065Z,25.02
2018-04-18T11:41:48.077Z,25.34
2018-04-18T11:42:48.090Z,25.12
2018-04-18T11:43:48.104Z,25.12
2018-04-18T11:44:48.134Z,25.42
2018-04-18T11:45:48.149Z,24.75
2018-04-18T11:46:48.160Z,24.29
2018-04-18T11:47:48.168Z,24.35
2018-04-18T11:48:48.190Z,24.29
2018-04-18T11:49:48.206Z,24.27
2018-04-18T11:50:48.212Z,24.59
2018-04-18T11:51:48.242Z,24.63
2018-04-18T11:52:48.255Z,24.05
2018-04-18T11:53:48.260Z,24.02
2018-04-18T11:54:48.328Z,24.07
2018-04-18T11:55:48.298Z,24.37
2018-04-18T11:56:48.313Z,24.63
2018-04-18T11:57:48.319Z,25.13
2018-04-18T11:58:48.368Z,25.05
2018-04-18T11:59:48.351Z,24.26
2018-04-18T12:00:48.368Z,24.75
2018-04-18T12:01:48.380Z,24.82
2018-04-18T12:02:48.402Z,24.79
2018-04-18T12:03:48.412Z,25.09
2018-04-18T12:04:48.431Z,25.01
2018-04-18T12:05:48.450Z,24.77
2018-04-18T12:06:48.450Z,24.53
2018-04-18T12:07:48.474Z,23.58
2018-04-18T12:08:48.495Z,23.85
2018-04-18T12:09:48.505Z,24.54
2018-04-18T12:10:48.524Z,24.71
2018-04-18T12:11:48.530Z,24.85
2018-04-18T12:12:48.551Z,24.63
2018-04-18T12:13:48.569Z,24.69
2018-04-18T12:14:48.584Z,24.39
2018-04-18T12:15:48.601Z,24.17
2018-04-18T12:16:48.616Z,24.56
2018-04-18T12:17:48.625Z,23.90
2018-04-18T12:18:48.642Z,24.32
2018-04-18T12:19:48.658Z,23.72
2018-04-18T12:20:48.675Z,23.39
2018-04-18T12:21:48.685Z,23.15
2018-04-18T12:22:48.690Z,22.84
2018-04-18T12:23:48.721Z,22.86
2018-04-18T12:24:48.727Z,22.94
2018-04-18T12:25:48.729Z,23.05
2018-04-18T12:26:48.758Z,22.84
2018-04-18T12:27:48.768Z,23.14
2018-04-18T12:28:48.798Z,22.68
2018-04-18T12:29:48.779Z,22.32
2018-04-18T12:30:48.789Z,22.41
2018-04-18T12:31:48.812Z,22.50
2018-04-18T12:32:48.824Z,22.54
2018-04-18T12:33:48.844Z,22.49
2018-04-18T12:34:48.838Z,22.54
2018-04-18T12:35:48.851Z,22.60
2018-04-18T12:36:48.871Z,22.67
2018-04-18T12:37:48.870Z,22.68
2018-04-18T12:38:48.870Z,22.68
2018-04-18T12:39:48.887Z,22.67
2018-04-18T12:40:48.887Z,22.65
2018-04-18T12:41:48.879Z,22.65
2018-04-18T12:42:48.894Z,22.52
2018-04-18T12:43:48.936Z,22.28
2018-04-18T12:44:48.925Z,22.41
2018-04-18T12:45:48.910Z,22.47
2018-04-18T12:46:48.916Z,22.12
2018-04-18T12:47:48.921Z,22.13
2018-04-18T12:48:48.923Z,22.13
2018-04-18T12:49:48.934Z,22.16
2018-04-18T12:50:48.932Z,22.29
2018-04-18T12:51:48.931Z,22.28
2018-04-18T12:52:48.937Z,22.49
2018-04-18T12:53:48.935Z,22.47
2018-04-18T12:54:48.937Z,22.52
2018-04-18T12:55:48.947Z,22.46
2018-04-18T12:56:48.996Z,22.37
2018-04-18T12:57:48.948Z,22.28
2018-04-18T12:58:48.956Z,22.32
2018-04-18T12:59:48.947Z,22.20
2018-04-18T13:00:48.962Z,22.25
2018-04-18T13:01:48.960Z,22.16
2018-04-18T13:02:48.958Z,22.25
2018-04-18T13:03:48.993Z,22.22
2018-04-18T13:04:48.968Z,22.23
2018-04-18T13:05:48.972Z,22.22
2018-04-18T13:06:48.958Z,22.25
2018-04-18T13:07:48.968Z,22.09
2018-04-18T13:08:48.974Z,22.28
2018-04-18T13:09:48.977Z,22.10
2018-04-18T13:10:48.965Z,22.23
2018-04-18T13:11:48.966Z,22.23
2018-04-18T13:12:48.986Z,22.12
2018-04-18T13:13:48.977Z,21.98
2018-04-18T13:14:48.995Z,22.20
2018-04-18T13:15:48.978Z,21.99
2018-04-18T13:16:48.984Z,22.01
2018-04-18T13:17:48.989Z,21.94
2018-04-18T13:18:48.994Z,22.12
2018-04-18T13:19:48.993Z,22.06
2018-04-18T13:20:49.002Z,22.06
2018-04-18T13:21:48.982Z,22.29
2018-04-18T13:22:48.995Z,22.17
2018-04-18T13:23:48.995Z,22.17
2018-04-18T13:24:49.001Z,22.12
2018-04-18T13:25:49.005Z,22.16
2018-04-18T13:26:48.988Z,21.97
2018-04-18T13:27:48.998Z,22.01
2018-04-18T13:28:48.997Z,22.09
2018-04-18T13:29:49.004Z,22.10
2018-04-18T13:30:49.004Z,22.12
2018-04-18T13:31:49.006Z,22.27
2018-04-18T13:32:49.012Z,22.27
2018-04-18T13:33:49.006Z,22.34
2018-04-18T13:34:49.024Z,22.43
2018-04-18T13:35:49.006Z,22.50
2018-04-18T13:36:49.011Z,22.53
2018-04-18T13:37:49.020Z,22.50
2018-04-18T13:38:49.010Z,22.29
2018-04-18T13:39:49.027Z,22.46
2018-04-18T13:40:49.003Z,22.41
2018-04-18T13:41:49.016Z,22.34
2018-04-18T13:42:49.020Z,22.46
2018-04-18T13:43:49.022Z,22.46
2018-04-18T13:44:49.008Z,22.43
2018-04-18T13:45:49.020Z,22.56